Time,TemperatureF,DewpointF,PressureIn,WindDirection,WindDirectionDegrees,WindSpeedMPH,WindSpeedGustMPH,Humidity,HourlyPrecipIn,Conditions,Clouds,dailyrainin,SoftwareType,DateUTC
2013-08-18 00:03:00,-999.0,-99.9,-100.00,NE,41,3.0,6.0,-999,-99.99,,,-99.99,,2013-08-18 04:03:00,
2013-08-18 00:23:00,65.0,-99.9,-100.00,NE,52,2.0,4.0,-999,-99.99,,,-99.99,,2013-08-18 04:23:00,
2013-08-18 00:33:00,65.0,-99.9,-100.00,NE,52,2.0,4.0,-999,-99.99,,,-99.99,,2013-08-18 04:33:00,
2013-08-18 00:53:00,65.0,-99.9,-100.00,NE,53,1.0,6.0,-999,-99.99,,,-99.99,,2013-08-18 04:53:00,
2013-08-18 01:22:00,63.0,-99.9,-100.00,North,5,0.0,1.0,-999,-99.99,,,-99.99,,2013-08-18 05:22:00,
2013-08-18 01:33:00,63.0,-99.9,-100.00,North,5,0.0,1.0,-999,-99.99,,,-99.99,,2013-08-18 05:33:00,
2013-08-18 01:52:00,65.0,-99.9,-100.00,ENE,69,1.0,4.0,-999,-99.99,,,-99.99,,2013-08-18 05:52:00,
2013-08-18 02:01:00,65.0,-99.9,-100.00,ENE,69,1.0,4.0,-999,-99.99,,,-99.99,,2013-08-18 06:01:00,
2013-08-18 02:22:00,62.0,-99.9,-100.00,North,-999,0.0,1.0,-999,-99.99,,,-99.99,,2013-08-18 06:22:00,
2013-08-18 02:42:00,63.0,-99.9,-100.00,North,-999,0.0,3.0,-999,-99.99,,,-99.99,,2013-08-18 06:42:00,
2013-08-18 02:52:00,63.0,-99.9,-100.00,North,-999,0.0,3.0,-999,-99.99,,,-99.99,,2013-08-18 06:52:00,
2013-08-18 03:11:00,62.0,-99.9,-100.00,WNW,297,0.0,2.0,-999,-99.99,,,-99.99,,2013-08-18 07:11:00,
2013-08-18 03:22:00,62.0,-99.9,-100.00,North,-999,0.0,1.0,-999,-99.99,,,-99.99,,2013-08-18 07:22:00,
2013-08-18 03:32:00,62.0,-99.9,-100.00,North,-999,0.0,1.0,-999,-99.99,,,-99.99,,2013-08-18 07:32:00,
2013-08-18 03:42:00,62.0,-99.9,-100.00,North,-999,0.0,1.0,-999,-99.99,,,-99.99,,2013-08-18 07:42:00,
2013-08-18 03:52:00,62.0,-99.9,-100.00,WNW,297,0.0,2.0,-999,-99.99,,,-99.99,,2013-08-18 07:52:00,
2013-08-18 04:02:00,62.0,-99.9,-100.00,WNW,297,0.0,2.0,-999,-99.99,,,-99.99,,2013-08-18 08:02:00,
2013-08-18 04:52:00,62.0,-99.9,-100.00,ENE,75,0.0,3.0,-999,-99.99,,,-99.99,,2013-08-18 08:52:00,
2013-08-18 05:02:00,62.0,-99.9,-100.00,ENE,75,0.0,3.0,-999,-99.99,,,-99.99,,2013-08-18 09:02:00,
2013-08-18 05:10:00,60.0,-99.9,-100.00,NNE,17,0.0,3.0,-999,-99.99,,,-99.99,,2013-08-18 09:10:00,
2013-08-18 05:22:00,60.0,-99.9,-100.00,West,270,0.0,2.0,-999,-99.99,,,-99.99,,2013-08-18 09:22:00,
2013-08-18 05:43:00,60.0,-99.9,-100.00,NNE,17,0.0,3.0,-999,-99.99,,,-99.99,,2013-08-18 09:43:00,
2013-08-18 05:53:00,60.0,-99.9,-100.00,NNE,17,0.0,3.0,-999,-99.99,,,-99.99,,2013-08-18 09:53:00,
2013-08-18 06:03:00,60.0,-99.9,-100.00,NNE,17,0.0,3.0,-999,-99.99,,,-99.99,,2013-08-18 10:03:00,
2013-08-18 06:23:00,60.0,-99.9,-100.00,NNE,13,1.0,3.0,-999,-99.99,,,-99.99,,2013-08-18 10:23:00,
2013-08-18 06:43:00,59.0,-99.9,-100.00,ENE,71,0.0,2.0,-999,-99.99,,,-99.99,,2013-08-18 10:43:00,
2013-08-18 06:52:00,59.0,-99.9,-100.00,ENE,71,0.0,2.0,-999,-99.99,,,-99.99,,2013-08-18 10:52:00,
2013-08-18 07:02:00,59.0,-99.9,-100.00,ENE,71,0.0,2.0,-999,-99.99,,,-99.99,,2013-08-18 11:02:00,
2013-08-18 07:42:00,57.0,-99.9,-100.00,North,0,1.0,2.0,-999,-99.99,,,-99.99,,2013-08-18 11:42:00,
2013-08-18 07:52:00,58.0,-99.9,-100.00,NNE,19,1.0,3.0,-999,-99.99,,,-99.99,,2013-08-18 11:52:00,
2013-08-18 08:11:00,58.0,-99.9,-100.00,North,7,2.0,3.0,-999,-99.99,,,-99.99,,2013-08-18 12:11:00,
2013-08-18 08:22:00,58.0,-99.9,-100.00,North,358,2.0,3.0,-999,-99.99,,,-99.99,,2013-08-18 12:22:00,
2013-08-18 08:32:00,58.0,-99.9,-100.00,North,358,2.0,3.0,-999,-99.99,,,-99.99,,2013-08-18 12:32:00,
2013-08-18 08:42:00,58.0,-99.9,-100.00,North,358,2.0,3.0,-999,-99.99,,,-99.99,,2013-08-18 12:42:00,
2013-08-18 08:52:00,58.0,-99.9,-100.00,North,7,2.0,3.0,-999,-99.99,,,-99.99,,2013-08-18 12:52:00,
2013-08-18 09:01:00,58.0,-99.9,-100.00,North,7,2.0,3.0,-999,-99.99,,,-99.99,,2013-08-18 13:01:00,
2013-08-18 09:21:00,60.0,-99.9,-100.00,North,7,1.0,3.0,-999,-99.99,,,-99.99,,2013-08-18 13:21:00,
2013-08-18 09:32:00,60.0,-99.9,-100.00,North,7,1.0,3.0,-999,-99.99,,,-99.99,,2013-08-18 13:32:00,
2013-08-18 10:11:00,65.0,-99.9,-100.00,NW,325,3.0,5.0,-999,-99.99,,,-99.99,,2013-08-18 14:11:00,
2013-08-18 10:22:00,65.0,-99.9,-100.00,NNW,332,4.0,5.0,-999,-99.99,,,-99.99,,2013-08-18 14:22:00,
2013-08-18 10:32:00,65.0,-99.9,-100.00,NNW,332,4.0,5.0,-999,-99.99,,,-99.99,,2013-08-18 14:32:00,
2013-08-18 10:53:00,65.0,-99.9,-100.00,NW,325,3.0,5.0,-999,-99.99,,,-99.99,,2013-08-18 14:53:00,
2013-08-18 11:12:00,65.0,-99.9,-100.00,North,1,5.0,6.0,-999,-99.99,,,-99.99,,2013-08-18 15:12:00,
2013-08-18 11:22:00,66.0,-99.9,-100.00,NNW,327,2.0,4.0,-999,-99.99,,,-99.99,,2013-08-18 15:22:00,
2013-08-18 11:33:00,66.0,-99.9,-100.00,NNW,327,2.0,4.0,-999,-99.99,,,-99.99,,2013-08-18 15:33:00,
2013-08-18 11:43:00,66.0,-99.9,-100.00,NNW,327,2.0,4.0,-999,-99.99,,,-99.99,,2013-08-18 15:43:00,
2013-08-18 11:54:00,65.0,-99.9,-100.00,North,1,5.0,6.0,-999,-99.99,,,-99.99,,2013-08-18 15:54:00,
2013-08-18 12:03:00,65.0,-99.9,-100.00,North,1,5.0,6.0,-999,-99.99,,,-99.99,,2013-08-18 16:03:00,
2013-08-18 12:23:00,68.0,-99.9,-100.00,NNW,345,3.0,4.0,-999,-99.99,,,-99.99,,2013-08-18 16:23:00,
2013-08-18 12:42:00,68.0,-99.9,-100.00,NW,315,2.0,5.0,-999,-99.99,,,-99.99,,2013-08-18 16:42:00,
2013-08-18 12:52:00,68.0,-99.9,-100.00,NW,315,2.0,5.0,-999,-99.99,,,-99.99,,2013-08-18 16:52:00,
2013-08-18 13:13:00,70.0,-99.9,-100.00,NW,325,3.0,4.0,-999,-99.99,,,-99.99,,2013-08-18 17:13:00,
2013-08-18 13:24:00,71.0,-99.9,-100.00,NW,316,2.0,4.0,-999,-99.99,,,-99.99,,2013-08-18 17:24:00,
2013-08-18 13:43:00,70.0,-99.9,-100.00,NW,325,3.0,4.0,-999,-99.99,,,-99.99,,2013-08-18 17:43:00,
2013-08-18 13:52:00,70.0,-99.9,-100.00,NW,325,3.0,4.0,-999,-99.99,,,-99.99,,2013-08-18 17:52:00,
2013-08-18 14:22:00,71.0,-99.9,-100.00,NW,308,4.0,6.0,-999,-99.99,,,-99.99,,2013-08-18 18:22:00,
2013-08-18 14:32:00,71.0,-99.9,-100.00,NW,308,4.0,6.0,-999,-99.99,,,-99.99,,2013-08-18 18:32:00,
2013-08-18 14:52:00,72.0,-99.9,-100.00,NW,316,5.0,7.0,-999,-99.99,,,-99.99,,2013-08-18 18:52:00,
2013-08-18 15:22:00,72.0,-99.9,-100.00,NW,319,6.0,7.0,-999,-99.99,,,-99.99,,2013-08-18 19:22:00,
2013-08-18 15:32:00,72.0,-99.9,-100.00,NW,319,6.0,7.0,-999,-99.99,,,-99.99,,2013-08-18 19:32:00,
2013-08-18 15:42:00,72.0,-99.9,-100.00,NW,319,6.0,7.0,-999,-99.99,,,-99.99,,2013-08-18 19:42:00,
2013-08-18 15:52:00,72.0,-99.9,-100.00,NW,317,6.0,7.0,-999,-99.99,,,-99.99,,2013-08-18 19:52:00,
2013-08-18 16:02:00,72.0,-99.9,-100.00,NW,317,6.0,7.0,-999,-99.99,,,-99.99,,2013-08-18 20:02:00,
2013-08-18 16:22:00,73.0,-99.9,-100.00,NNW,329,6.0,7.0,-999,-99.99,,,-99.99,,2013-08-18 20:22:00,
2013-08-18 16:42:00,72.0,-99.9,-100.00,NNW,331,6.0,9.0,-999,-99.99,,,-99.99,,2013-08-18 20:42:00,
2013-08-18 16:52:00,72.0,-99.9,-100.00,NNW,331,6.0,9.0,-999,-99.99,,,-99.99,,2013-08-18 20:52:00,
2013-08-18 17:01:00,72.0,-99.9,-100.00,NNW,331,6.0,9.0,-999,-99.99,,,-99.99,,2013-08-18 21:01:00,
2013-08-18 17:22:00,73.0,-99.9,-100.00,NNW,339,5.0,7.0,-999,-99.99,,,-99.99,,2013-08-18 21:22:00,
2013-08-18 17:42:00,72.0,-99.9,-100.00,NNW,343,6.0,8.0,-999,-99.99,,,-99.99,,2013-08-18 21:42:00,
2013-08-18 17:54:00,72.0,-99.9,-100.00,NNW,343,6.0,8.0,-999,-99.99,,,-99.99,,2013-08-18 21:54:00,
2013-08-18 18:13:00,72.0,-99.9,-100.00,NNW,343,6.0,8.0,-999,-99.99,,,-99.99,,2013-08-18 22:13:00,
2013-08-18 18:23:00,72.0,-99.9,-100.00,North,351,5.0,8.0,-999,-99.99,,,-99.99,,2013-08-18 22:23:00,
2013-08-18 18:34:00,72.0,-99.9,-100.00,North,351,5.0,8.0,-999,-99.99,,,-99.99,,2013-08-18 22:34:00,
2013-08-18 18:42:00,72.0,-99.9,-100.00,North,351,5.0,8.0,-999,-99.99,,,-99.99,,2013-08-18 22:42:00,
2013-08-18 18:52:00,72.0,-99.9,-100.00,North,351,5.0,8.0,-999,-99.99,,,-99.99,,2013-08-18 22:52:00,
2013-08-18 19:11:00,73.0,-99.9,-100.00,NNW,345,6.0,8.0,-999,-99.99,,,-99.99,,2013-08-18 23:11:00,
2013-08-18 19:22:00,72.0,-99.9,-100.00,North,355,7.0,9.0,-999,-99.99,,,-99.99,,2013-08-18 23:22:00,
2013-08-18 19:33:00,72.0,-99.9,-100.00,North,355,7.0,9.0,-999,-99.99,,,-99.99,,2013-08-18 23:33:00,
2013-08-18 19:52:00,71.0,-99.9,-100.00,North,352,7.0,9.0,-999,-99.99,,,-99.99,,2013-08-18 23:52:00,
2013-08-18 20:12:00,71.0,-99.9,-100.00,North,352,7.0,9.0,-999,-99.99,,,-99.99,,2013-08-19 00:12:00,
2013-08-18 20:22:00,72.0,-99.9,-100.00,North,356,7.0,9.0,-999,-99.99,,,-99.99,,2013-08-19 00:22:00,
2013-08-18 20:42:00,72.0,-99.9,-100.00,North,360,7.0,11.0,-999,-99.99,,,-99.99,,2013-08-19 00:42:00,
2013-08-18 21:22:00,69.0,-99.9,-100.00,NNE,31,2.0,5.0,-999,-99.99,,,-99.99,,2013-08-19 01:22:00,
2013-08-18 21:32:00,69.0,-99.9,-100.00,NNE,31,2.0,5.0,-999,-99.99,,,-99.99,,2013-08-19 01:32:00,
2013-08-18 21:42:00,69.0,-99.9,-100.00,NNE,31,2.0,5.0,-999,-99.99,,,-99.99,,2013-08-19 01:42:00,
2013-08-18 21:52:00,70.0,-99.9,-100.00,NNE,27,2.0,9.0,-999,-99.99,,,-99.99,,2013-08-19 01:52:00,
2013-08-18 22:22:00,66.0,-99.9,-100.00,East,95,0.0,2.0,-999,-99.99,,,-99.99,,2013-08-19 02:22:00,
2013-08-18 22:32:00,66.0,-99.9,-100.00,East,95,0.0,2.0,-999,-99.99,,,-99.99,,2013-08-19 02:32:00,
2013-08-18 22:42:00,66.0,-99.9,-100.00,East,95,0.0,2.0,-999,-99.99,,,-99.99,,2013-08-19 02:42:00,
2013-08-18 22:52:00,67.0,-99.9,-100.00,ENE,63,0.0,6.0,-999,-99.99,,,-99.99,,2013-08-19 02:52:00,
2013-08-18 23:11:00,67.0,-99.9,-100.00,ENE,63,0.0,6.0,-999,-99.99,,,-99.99,,2013-08-19 03:11:00,
2013-08-18 23:22:00,67.0,-99.9,-100.00,North,-999,0.0,4.0,-999,-99.99,,,-99.99,,2013-08-19 03:22:00,
2013-08-18 23:33:00,67.0,-99.9,-100.00,North,-999,0.0,4.0,-999,-99.99,,,-99.99,,2013-08-19 03:33:00,
2013-08-18 23:42:00,67.0,-99.9,-100.00,North,-999,0.0,4.0,-999,-99.99,,,-99.99,,2013-08-19 03:42:00,
2013-08-18 23:53:00,67.0,-99.9,-100.00,ENE,78,1.0,2.0,-999,-99.99,,,-99.99,,2013-08-19 03:53:00,